»·PEaware :: N800DW KTOA-KVNY

N800DW :: KTOA-KVNY

FLIGHT INFORMATION

Flight Status: Arrived
Operator: Privately registered:
United States
More flights under this callsign
Pilot: Scott L. (17677)
Aircraft: Unknown
(PIPA)
More flights by this aircraft type
Origin: KTOA Zamperini
United States
Destination: KVNY Van Nuys
United States
More flights between these airports :: More routes between these airports
Route: +LAX170 LIMBO V64 SMO125 SMO SMO317 CANOG
File this flight plan on PilotEdge
Remarks: SKYHIGH 1
Altitude:
(Current/Filed)
4,000ft
Speed:
(Current/Filed)
185kts
Departed: 15-Dec-19 11:32 AM
Arrived: 15-Dec-19 12:52 PM
Distance/Time
Traveled:
25nm/1:20
Distance/Time
To Go:
Arrived

Flight Plot

Page will automatically refresh every two minutes.


Map Options




Map Legend


Flown Route
Filed Route
Departure Airport
Arrival Airport
Navaid (VOR, NDB)
Fix

Horizontal Profiles

Position Reports

Time Latitude Longitude Heading Altitude Ground
Speed
15-Dec-19 11:17 33.796503 -118.332401 0 98ft 0kts
15-Dec-19 11:18 33.796503 -118.332401 0 98ft 0kts
15-Dec-19 11:19 33.796503 -118.332401 0 98ft 0kts
15-Dec-19 11:20 33.796503 -118.332401 0 98ft 0kts
15-Dec-19 11:21 33.796503 -118.332401 0 98ft 0kts
15-Dec-19 11:22 33.796503 -118.332401 0 98ft 0kts
15-Dec-19 11:23 33.796503 -118.332401 0 98ft 0kts
15-Dec-19 11:24 33.796503 -118.332401 0 98ft 0kts
15-Dec-19 11:25 33.796696 -118.332411 355 98ft 6kts
15-Dec-19 11:25 33.797712 -118.333143 267 98ft 3kts
15-Dec-19 11:27 33.798387 -118.333995 38 98ft 11kts
15-Dec-19 11:28 33.799091 -118.333289 38 98ft 0kts
15-Dec-19 11:28 33.799091 -118.333289 38 98ft 0kts
15-Dec-19 11:30 33.799091 -118.333289 38 98ft 0kts
15-Dec-19 11:30 33.799773 -118.333165 301 98ft 11kts
15-Dec-19 11:31 33.813588 -118.359018 300 830ft 125kts
15-Dec-19 11:33 33.836368 -118.406297 302 2027ft 147kts
15-Dec-19 11:33 33.852262 -118.441680 287 3016ft 144kts
15-Dec-19 11:34 33.821455 -118.445099 101 3987ft 182kts
15-Dec-19 11:35 33.776492 -118.431897 208 3997ft 194kts
15-Dec-19 11:36 33.747449 -118.404647 64 3995ft 152kts
15-Dec-19 11:37 33.759342 -118.353485 71 4002ft 164kts
15-Dec-19 11:38 33.767661 -118.298493 75 3998ft 167kts
15-Dec-19 11:39 33.773837 -118.244710 70 3993ft 168kts
15-Dec-19 11:40 33.804661 -118.246142 316 3995ft 137kts
15-Dec-19 11:41 33.833921 -118.275977 318 3997ft 138kts
15-Dec-19 11:42 33.863093 -118.306339 318 4004ft 138kts
15-Dec-19 11:43 33.892248 -118.336809 320 4002ft 138kts
15-Dec-19 11:44 33.921695 -118.367065 321 4005ft 138kts
15-Dec-19 11:45 33.951275 -118.397065 321 4001ft 139kts
15-Dec-19 11:46 33.981043 -118.427168 321 3995ft 138kts
15-Dec-19 11:47 34.010667 -118.456967 329 3986ft 136kts
15-Dec-19 11:48 34.044097 -118.478494 332 3991ft 136kts
15-Dec-19 11:49 34.077484 -118.499990 332 3989ft 135kts
15-Dec-19 11:50 34.110644 -118.521357 333 3984ft 135kts
15-Dec-19 11:51 34.141062 -118.541063 334 4969ft 121kts
15-Dec-19 11:52 34.175938 -118.563483 334 4985ft 150kts
15-Dec-19 11:53 34.213093 -118.587506 335 4980ft 143kts
15-Dec-19 11:54 34.249802 -118.597274 351 4983ft 131kts
15-Dec-19 11:55 34.285347 -118.603510 351 4986ft 128kts
15-Dec-19 11:56 34.320529 -118.609846 351 4987ft 127kts
15-Dec-19 11:57 34.355526 -118.616314 352 4983ft 126kts
15-Dec-19 11:58 34.390413 -118.622894 352 4985ft 126kts
15-Dec-19 11:59 34.425180 -118.629061 352 4989ft 126kts
15-Dec-19 12:00 34.460510 -118.632032 352 4994ft 129kts
15-Dec-19 12:01 34.483453 -118.603957 86 5005ft 166kts
15-Dec-19 12:02 34.481207 -118.547218 87 5001ft 168kts
15-Dec-19 12:03 34.479268 -118.490250 87 5007ft 169kts
15-Dec-19 12:04 34.478805 -118.432639 87 5008ft 171kts
15-Dec-19 12:05 34.478447 -118.374819 87 5034ft 171kts
15-Dec-19 12:06 34.496385 -118.339650 324 5034ft 129kts
15-Dec-19 12:07 34.497463 -118.381709 262 5036ft 135kts
15-Dec-19 12:08 34.487313 -118.426167 261 5030ft 137kts
15-Dec-19 12:09 34.476657 -118.470746 262 5028ft 138kts
15-Dec-19 12:10 34.443134 -118.497198 212 5024ft 161kts
15-Dec-19 12:11 34.397532 -118.507517 180 4792ft 187kts
15-Dec-19 12:12 34.342434 -118.502831 179 3671ft 196kts
15-Dec-19 12:13 34.301368 -118.498972 177 2775ft 136kts
15-Dec-19 12:14 34.257422 -118.494904 177 1790ft 163kts
15-Dec-19 12:15 34.221628 -118.490445 162 1216ft 109kts
15-Dec-19 12:16 34.182605 -118.477509 168 1775ft 183kts
15-Dec-19 12:17 34.135759 -118.465984 169 3368ft 158kts
15-Dec-19 12:18 34.093972 -118.455670 173 4612ft 171kts
15-Dec-19 12:19 34.039056 -118.456119 184 4611ft 211kts
15-Dec-19 12:20 34.012750 -118.493921 291 4611ft 151kts
15-Dec-19 12:21 34.022070 -118.536316 292 4613ft 112kts
15-Dec-19 12:22 34.028951 -118.569791 291 4636ft 118kts
15-Dec-19 12:23 34.038708 -118.619422 288 4626ft 170kts
15-Dec-19 12:24 34.049113 -118.676042 286 4626ft 179kts
15-Dec-19 12:25 34.059822 -118.735633 286 4632ft 185kts
15-Dec-19 12:26 34.084742 -118.778453 18 4628ft 178kts
15-Dec-19 12:27 34.114135 -118.727887 49 4632ft 184kts
15-Dec-19 12:28 34.146914 -118.680419 42 4628ft 180kts
15-Dec-19 12:29 34.179747 -118.639313 38 4623ft 162kts
15-Dec-19 12:30 34.194637 -118.592982 128 4316ft 186kts
15-Dec-19 12:31 34.167443 -118.602741 270 3435ft 99kts
15-Dec-19 12:32 34.171874 -118.649749 333 3423ft 168kts
15-Dec-19 12:33 34.191268 -118.606574 82 3420ft 200kts
15-Dec-19 12:34 34.194992 -118.556045 74 2718ft 97kts
15-Dec-19 12:35 34.202838 -118.525302 33 1991ft 95kts
15-Dec-19 12:36 34.223404 -118.511978 64 1972ft 79kts
15-Dec-19 12:37 34.219960 -118.490196 168 926ft 79kts
15-Dec-19 12:38 34.195484 -118.485431 168 1257ft 116kts
15-Dec-19 12:39 34.159627 -118.474578 166 2192ft 159kts
15-Dec-19 12:40 34.123098 -118.463951 166 4128ft 125kts
15-Dec-19 12:41 34.105004 -118.486245 281 4780ft 155kts
15-Dec-19 12:42 34.110555 -118.548073 281 4024ft 176kts
15-Dec-19 12:43 34.127262 -118.581797 21 3937ft 124kts
15-Dec-19 12:44 34.145596 -118.537359 69 2770ft 136kts
15-Dec-19 12:45 34.141121 -118.496759 91 2073ft 119kts
15-Dec-19 12:46 34.153366 -118.466865 54 2237ft 118kts
15-Dec-19 12:47 34.143594 -118.442954 266 2753ft 154kts
15-Dec-19 12:48 34.154326 -118.480097 294 1581ft 104kts
15-Dec-19 12:49 34.171770 -118.488340 357 1308ft 77kts
15-Dec-19 12:50 34.192128 -118.488714 353 962ft 71kts
15-Dec-19 12:51 34.201184 -118.490222 301 805ft 0kts
15-Dec-19 12:52 34.202064 -118.490635 342 805ft 17kts

Navigation Log

Ident Type
Flight plan parsing failed, navigation log unavailable